Time;durP1;ratioP1;P1;durP2;ratioP2;P2;SDS_P1;SDS_P2;PMS_P1;PMS_P2;Temp;Humidity;BMP_temperature;BMP_pressure;BME280_temperature;BME280_humidity;BME280_pressure;Samples;Min_cycle;Max_cycle;Signal;HPM_P1;HPM_P2
2022/11/03 00:01:02;;;;;;;15.82;4.10;;;;;;;;;;6219018;23;20047;-72
2022/11/03 00:03:29;;;;;;;17.48;2.88;;;;;;;;;;6218747;23;20019;-72
2022/11/03 00:06:04;;;;;;;20.75;3.53;;;;;;;;;;6218933;23;20016;-72
2022/11/03 00:08:30;;;;;;;27.42;4.22;;;;;;;;;;6218588;23;20043;-72
2022/11/03 00:11:03;;;;;;;20.80;3.20;;;;;;;;;;6218606;23;20024;-72
2022/11/03 00:13:29;;;;;;;21.33;5.50;;;;;;;;;;6218715;23;20087;-72
2022/11/03 00:15:56;;;;;;;18.92;3.58;;;;;;;;;;6218740;23;20019;-72
2022/11/03 00:18:22;;;;;;;19.80;4.00;;;;;;;;;;6218717;23;20016;-72
2022/11/03 00:20:58;;;;;;;17.00;3.03;;;;;;;;;;6218703;23;20519;-72
2022/11/03 00:23:25;;;;;;;21.35;3.20;;;;;;;;;;6218623;23;20019;-72
2022/11/03 00:25:51;;;;;;;19.88;4.55;;;;;;;;;;6245789;23;20083;-72
2022/11/03 00:28:17;;;;;;;16.95;3.60;;;;;;;;;;6218652;23;20016;-72
2022/11/03 00:30:43;;;;;;;25.02;4.65;;;;;;;;;;6218817;23;20027;-72
2022/11/03 00:33:09;;;;;;;26.02;4.55;;;;;;;;;;6218597;23;20046;-72
2022/11/03 00:35:35;;;;;;;31.30;4.65;;;;;;;;;;6218530;23;20081;-72
2022/11/03 00:38:02;;;;;;;20.83;3.30;;;;;;;;;;6218539;23;20469;-72
2022/11/03 00:40:28;;;;;;;22.13;4.47;;;;;;;;;;6218615;23;20085;-72
2022/11/03 00:42:54;;;;;;;24.67;3.85;;;;;;;;;;6218500;23;20012;-73
2022/11/03 00:45:20;;;;;;;22.10;3.80;;;;;;;;;;6218576;23;20094;-72
2022/11/03 00:50:32;;;;;;;26.20;4.78;;;;;;;;;;6218300;23;20016;-72
2022/11/03 00:52:58;;;;;;;20.05;4.85;;;;;;;;;;6218611;23;20020;-72
2022/11/03 00:55:24;;;;;;;22.65;3.63;;;;;;;;;;6193700;23;20016;-72
2022/11/03 00:57:52;;;;;;;21.67;3.80;;;;;;;;;;6218234;23;20346;-72
2022/11/03 01:00:18;;;;;;;20.02;4.40;;;;;;;;;;6218505;23;20012;-72
2022/11/03 01:02:44;;;;;;;24.10;3.42;;;;;;;;;;6218384;23;20012;-72
2022/11/03 01:07:55;;;;;;;23.05;2.97;;;;;;;;;;6218300;23;20016;-73
2022/11/03 01:10:21;;;;;;;19.90;3.55;;;;;;;;;;6218419;23;20055;-73
2022/11/03 01:12:47;;;;;;;27.70;4.75;;;;;;;;;;6245305;23;20038;-73
2022/11/03 01:15:13;;;;;;;14.25;3.00;;;;;;;;;;6218537;23;20015;-73
2022/11/03 01:17:40;;;;;;;20.27;3.58;;;;;;;;;;6218384;23;20091;-73
2022/11/03 01:20:06;;;;;;;21.92;3.95;;;;;;;;;;6218273;23;20451;-73
2022/11/03 01:22:32;;;;;;;17.25;3.08;;;;;;;;;;6218680;23;20016;-73
2022/11/03 01:24:58;;;;;;;22.73;3.60;;;;;;;;;;6218480;23;20016;-73
2022/11/03 01:27:24;;;;;;;17.80;3.35;;;;;;;;;;6218502;23;20048;-73
2022/11/03 01:29:50;;;;;;;15.70;3.10;;;;;;;;;;6218444;23;20023;-73
2022/11/03 01:32:17;;;;;;;19.23;3.90;;;;;;;;;;6218332;23;20047;-73
2022/11/03 01:34:43;;;;;;;22.85;3.35;;;;;;;;;;6218256;23;20058;-73
2022/11/03 01:37:09;;;;;;;19.95;3.80;;;;;;;;;;6218212;23;20015;-73
2022/11/03 01:39:35;;;;;;;29.10;3.92;;;;;;;;;;6218327;23;20023;-73
2022/11/03 01:42:02;;;;;;;18.77;3.35;;;;;;;;;;6218374;23;20016;-73
2022/11/03 01:44:29;;;;;;;18.27;3.40;;;;;;;;;;6218371;23;20066;-73
2022/11/03 01:46:55;;;;;;;20.52;3.63;;;;;;;;;;6219870;23;20012;-73
2022/11/03 01:49:27;;;;;;;18.73;2.88;;;;;;;;;;6220080;23;20054;-73
2022/11/03 01:51:55;;;;;;;21.35;3.67;;;;;;;;;;6220205;23;20023;-73
2022/11/03 01:54:24;;;;;;;20.70;4.28;;;;;;;;;;6219931;23;20091;-73
2022/11/03 01:56:51;;;;;;;14.10;2.80;;;;;;;;;;6220285;23;20346;-73
2022/11/03 01:59:18;;;;;;;15.25;3.15;;;;;;;;;;6219923;23;20027;-74
2022/11/03 02:01:45;;;;;;;22.58;3.38;;;;;;;;;;6220345;23;20414;-73
2022/11/03 02:04:14;;;;;;;20.23;3.47;;;;;;;;;;6219973;23;20508;-73
2022/11/03 02:06:40;;;;;;;18.83;4.68;;;;;;;;;;6219925;23;20025;-73
2022/11/03 02:09:07;;;;;;;15.80;3.05;;;;;;;;;;6219931;23;20041;-73
2022/11/03 02:14:19;;;;;;;18.30;3.42;;;;;;;;;;6219904;23;20031;-73
2022/11/03 02:16:48;;;;;;;16.75;3.28;;;;;;;;;;6220049;23;20020;-73
2022/11/03 02:19:38;;;;;;;12.48;2.65;;;;;;;;;;6219727;23;20457;-73
2022/11/03 02:22:10;;;;;;;18.98;3.17;;;;;;;;;;6204646;23;20071;-73
2022/11/03 02:24:53;;;;;;;20.70;3.30;;;;;;;;;;6219896;23;20097;-73
2022/11/03 02:27:20;;;;;;;20.33;3.10;;;;;;;;;;6219701;23;20012;-73
2022/11/03 02:29:46;;;;;;;15.63;3.05;;;;;;;;;;6219750;23;20034;-73
2022/11/03 02:32:22;;;;;;;18.95;3.70;;;;;;;;;;6220069;23;20019;-73
2022/11/03 02:35:03;;;;;;;21.67;3.75;;;;;;;;;;6219644;23;20047;-73
2022/11/03 02:37:31;;;;;;;19.75;3.22;;;;;;;;;;6219629;23;20067;-73
2022/11/03 02:39:59;;;;;;;19.50;3.38;;;;;;;;;;6219794;23;20016;-73
2022/11/03 02:42:25;;;;;;;19.88;3.30;;;;;;;;;;6219531;23;20055;-73
2022/11/03 02:44:53;;;;;;;22.60;3.85;;;;;;;;;;6219764;23;20024;-73
2022/11/03 02:47:20;;;;;;;14.10;3.05;;;;;;;;;;6219578;23;20035;-73
2022/11/03 02:49:47;;;;;;;13.27;2.88;;;;;;;;;;6219652;23;20096;-73
2022/11/03 02:52:37;;;;;;;18.10;3.40;;;11.10;99.90;;;;;;6219482;23;20027;-73
2022/11/03 02:55:08;;;;;;;22.80;3.30;;;;;;;;;;6219587;23;20442;-73
2022/11/03 02:57:37;;;;;;;33.65;4.90;;;;;;;;;;6219021;23;20381;-73
2022/11/03 03:00:05;;;;;;;22.48;3.28;;;;;;;;;;6219642;23;20078;-73
2022/11/03 03:02:49;;;;;;;17.95;3.15;;;;;;;;;;6219279;23;20020;-73
2022/11/03 03:05:17;;;;;;;18.90;3.53;;;;;;;;;;6219453;23;20016;-73
2022/11/03 03:07:44;;;;;;;12.07;3.38;;;;;;;;;;6219462;22;20069;-73
2022/11/03 03:10:16;;;;;;;24.33;3.40;;;;;;;;;;6219535;23;20022;-73
2022/11/03 03:12:45;;;;;;;18.20;3.10;;;;;;;;;;6219370;23;20028;-73
2022/11/03 03:15:11;;;;;;;13.48;3.17;;;;;;;;;;6219392;23;20121;-73
2022/11/03 03:17:45;;;;;;;15.52;3.47;;;;;;;;;;6219236;23;20087;-73
2022/11/03 03:20:17;;;;;;;22.48;3.03;;;;;;;;;;6219366;23;20066;-73
2022/11/03 03:23:03;;;;;;;13.98;3.03;;;;;;;;;;6219408;23;20458;-73
2022/11/03 03:25:29;;;;;;;24.25;3.15;;;;;;;;;;6218851;23;20378;-73
2022/11/03 03:28:01;;;;;;;24.63;5.28;;;;;;;;;;6219140;23;20012;-73
2022/11/03 03:30:28;;;;;;;15.65;2.90;;;;;;;;;;6218969;23;20504;-73
2022/11/03 03:32:56;;;;;;;20.85;4.10;;;;;;;;;;6218792;23;20039;-73
2022/11/03 03:35:24;;;;;;;20.98;3.22;;;;;;;;;;6218944;23;20016;-73
2022/11/03 03:37:52;;;;;;;18.40;3.17;;;;;;;;;;6219012;23;20009;-73
2022/11/03 03:40:22;;;;;;;20.17;3.15;;;;;;;;;;6219192;23;20047;-73
2022/11/03 03:42:49;;;;;;;17.40;2.83;;;;;;;;;;6219057;23;20016;-73
2022/11/03 03:45:16;;;;;;;17.05;3.20;;;;;;;;;;6219175;23;20461;-73
2022/11/03 03:47:43;;;;;;;21.02;4.40;;;;;;;;;;6219086;23;20012;-73
2022/11/03 03:50:09;;;;;;;17.45;3.03;;;;;;;;;;6218849;23;20091;-73
2022/11/03 03:52:36;;;;;;;17.85;3.75;;;;;;;;;;6218914;23;20012;-73
2022/11/03 03:55:02;;;;;;;21.20;3.33;;;;;;;;;;6218945;23;20023;-73
2022/11/03 03:57:30;;;;;;;18.25;3.17;;;;;;;;;;6218698;23;20023;-73
2022/11/03 03:59:56;;;;;;;18.08;3.00;;;;;;;;;;6218660;23;20023;-73
2022/11/03 04:02:22;;;;;;;14.68;2.95;;;;;;;;;;6218786;23;20009;-73
2022/11/03 04:04:48;;;;;;;15.80;3.25;;;;;;;;;;6218693;23;20020;-73
2022/11/03 04:09:59;;;;;;;14.52;2.75;;;;;;;;;;6218333;23;20390;-73
2022/11/03 04:23:27;;;;;;;15.57;3.30;;;;;;;;;;6218671;23;20020;-73
2022/11/03 04:25:54;;;;;;;16.02;3.10;;;;;;;;;;6218753;23;20052;-73
2022/11/03 04:28:20;;;;;;;18.05;3.67;;;;;;;;;;6218800;23;20043;-73
2022/11/03 04:30:46;;;;;;;16.05;3.47;;;;;;;;;;6218487;23;20016;-73
2022/11/03 04:33:17;;;;;;;18.77;3.30;;;;;;;;;;6218619;23;20020;-73
2022/11/03 04:35:43;;;;;;;11.20;2.78;;;;;;;;;;6218742;23;20016;-73
2022/11/03 04:38:12;;;;;;;14.43;3.05;;;;;;;;;;6218538;23;20338;-73
2022/11/03 04:40:49;;;;;;;22.35;3.65;;;;;;;;;;6218641;23;20047;-73
2022/11/03 04:43:17;;;;;;;15.32;3.03;;;;;;;;;;6218670;23;20009;-73
2022/11/03 04:45:44;;;;;;;10.02;2.92;;;;;;;;;;6218659;23;20019;-73
2022/11/03 04:48:12;;;;;;;17.75;4.18;;;;;;;;;;6218512;23;20016;-73
2022/11/03 04:50:39;;;;;;;17.08;3.42;;;;;;;;;;6218496;23;20020;-73
2022/11/03 04:53:08;;;;;;;18.75;3.65;;;;;;;;;;6218630;23;20342;-73
2022/11/03 04:55:34;;;;;;;18.02;3.58;;;;;;;;;;6218646;23;20457;-72
2022/11/03 04:58:02;;;;;;;14.63;3.55;;;;;;;;;;6218201;23;20028;-73
2022/11/03 05:00:28;;;;;;;18.00;3.53;;;;;;;;;;6218462;23;20323;-72
2022/11/03 05:02:54;;;;;;;21.80;3.92;;;;;;;;;;6218591;23;20019;-73
2022/11/03 05:05:21;;;;;;;17.55;4.97;;;;;;;;;;6218731;23;20015;-73
2022/11/03 05:07:51;;;;;;;17.77;3.25;;;;;;;;;;6218469;22;20312;-73
2022/11/03 05:10:20;;;;;;;17.25;4.07;;;;;;;;;;6218278;23;20016;-73
2022/11/03 05:12:47;;;;;;;17.73;3.67;;;;;;;;;;6218217;23;20016;-73
2022/11/03 05:15:28;;;;;;;18.30;3.72;;;;;;;;;;6218370;23;20008;-73
2022/11/03 05:17:54;;;;;;;15.20;3.42;;;;;;;;;;6218186;23;20043;-73
2022/11/03 05:20:43;;;;;;;17.10;3.17;;;;;;;;;;6218898;23;20338;-74
2022/11/03 05:23:11;;;;;;;18.63;3.55;;;;;;;;;;6220212;23;20020;-74
2022/11/03 05:25:41;;;;;;;17.13;3.50;;;;;;;;;;6220485;23;20015;-74
2022/11/03 05:28:22;;;;;;;9.48;2.88;;;;;;;;;;6220437;23;20035;-75
2022/11/03 05:30:48;;;;;;;14.13;3.25;;;;;;;;;;6218809;23;20055;-74
2022/11/03 05:33:35;;;;;;;15.10;3.15;;;;;;;;;;6219868;23;20031;-74
2022/11/03 05:36:02;;;;;;;17.15;3.38;;;;;;;;;;6221175;23;20438;-74
2022/11/03 05:38:30;;;;;;;19.10;3.60;;;;;;;;;;6220736;23;20038;-74
2022/11/03 05:40:56;;;;;;;18.48;4.30;;;;;;;;;;6220745;23;20025;-74
2022/11/03 05:43:22;;;;;;;18.42;3.33;;;;;;;;;;6220950;23;20016;-74
2022/11/03 05:45:50;;;;;;;12.90;3.50;;;;;;;;;;6220793;23;20012;-74
2022/11/03 05:48:25;;;;;;;13.40;3.25;;;;;;;;;;6220861;23;20024;-74
2022/11/03 05:50:51;;;;;;;19.38;3.20;;;;;;;;;;6220779;23;20012;-75
2022/11/03 05:53:17;;;;;;;22.17;3.63;;;;;;;;;;6220873;23;20020;-74
2022/11/03 05:55:43;;;;;;;14.88;3.72;;;;;;;;;;6220898;23;20397;-74
2022/11/03 05:58:28;;;;;;;16.30;2.90;;;10.50;99.90;;;;;;6220547;23;20020;-74
2022/11/03 06:00:56;;;;;;;24.75;3.33;;;;;;;;;;6220848;23;20044;-74
2022/11/03 06:03:29;;;;;;;13.68;4.00;;;;;;;;;;6220896;23;20553;-74
2022/11/03 06:05:56;;;;;;;15.95;3.28;;;;;;;;;;6219293;23;20012;-74
2022/11/03 06:08:24;;;;;;;17.77;3.88;;;;;;;;;;6218179;23;20031;-74
2022/11/03 06:10:52;;;;;;;22.83;4.70;;;;;;;;;;6218400;23;20057;-74
2022/11/03 06:13:26;;;;;;;16.20;3.30;;;;;;;;;;6218551;23;20016;-74
2022/11/03 06:15:56;;;;;;;15.30;3.90;;;;;;;;;;6218217;23;20047;-74
2022/11/03 06:18:24;;;;;;;23.27;3.95;;;;;;;;;;6218584;23;20012;-73
2022/11/03 06:20:52;;;;;;;17.38;3.53;;;;;;;;;;6218472;23;20454;-74
2022/11/03 06:23:19;;;;;;;17.52;3.80;;;;;;;;;;6218068;23;20012;-74
2022/11/03 06:25:46;;;;;;;19.58;4.18;;;;;;;;;;6218378;23;20077;-74
2022/11/03 06:28:20;;;;;;;15.25;3.45;;;;;;;;;;6219691;23;20012;-74
2022/11/03 06:30:46;;;;;;;9.38;3.05;;;;;;;;;;6219656;23;20012;-74
2022/11/03 06:33:14;;;;;;;18.85;3.88;;;;;;;;;;6219208;23;20027;-74
2022/11/03 06:35:41;;;;;;;15.05;3.00;;;;;;;;;;6219733;23;20084;-74
2022/11/03 06:38:25;;;;;;;17.67;3.85;;;;;;;;;;6219693;23;20016;-74
2022/11/03 06:40:51;;;;;;;15.32;3.38;;;;;;;;;;6219790;23;20019;-74
2022/11/03 06:43:18;;;;;;;19.92;3.83;;;;;;;;;;6219746;23;20019;-74
2022/11/03 06:45:49;;;;;;;14.02;3.20;;;;;;;;;;6219348;23;20091;-73
2022/11/03 06:48:19;;;;;;;14.23;3.55;;;;;;;;;;6219539;23;20016;-74
2022/11/03 06:50:45;;;;;;;18.92;3.30;;;;;;;;;;6219671;23;20027;-73
2022/11/03 06:53:12;;;;;;;20.33;3.33;;;;;;;;;;6193092;23;20090;-74
2022/11/03 06:55:39;;;;;;;15.10;3.45;;;;;;;;;;6217035;23;20012;-73
2022/11/03 06:58:17;;;;;;;17.05;3.22;;;;;;;;;;6217072;23;20031;-73
2022/11/03 07:00:44;;;;;;;17.13;4.38;;;;;;;;;;6217437;23;20023;-74
2022/11/03 07:03:10;;;;;;;18.17;3.38;;;;;;;;;;6218684;23;20016;-73
2022/11/03 07:05:37;;;;;;;12.70;3.38;;;;;;;;;;6219712;23;20073;-74
2022/11/03 07:08:10;;;;;;;19.55;4.55;;;;;;;;;;6218851;23;20020;-73
2022/11/03 07:10:36;;;;;;;14.68;3.60;;;;;;;;;;6218817;23;20020;-74
2022/11/03 07:13:10;;;;;;;17.90;3.45;;;;;;;;;;6193207;23;20338;-74
2022/11/03 07:15:38;;;;;;;20.70;4.30;;;;;;;;;;6218587;23;20020;-74
2022/11/03 07:18:05;;;;;;;15.45;3.80;;;;;;;;;;6218665;23;20022;-75
2022/11/03 07:20:31;;;;;;;20.00;3.30;;;;;;;;;;6218774;23;20095;-75
2022/11/03 07:23:00;;;;;;;17.85;3.45;;;;;;;;;;6193757;23;20012;-75
2022/11/03 07:25:26;;;;;;;13.52;3.08;;;;;;;;;;6220392;23;20091;-74
2022/11/03 07:27:54;;;;;;;14.95;3.30;;;;;;;;;;6219369;23;20319;-74
2022/11/03 07:30:20;;;;;;;15.30;3.10;;;;;;;;;;6219225;23;20039;-74
2022/11/03 07:32:47;;;;;;;17.48;4.20;;;;;;;;;;6219383;23;20043;-74
2022/11/03 07:35:16;;;;;;;15.55;3.42;;;;;;;;;;6219221;23;20018;-73
2022/11/03 07:37:43;;;;;;;17.90;4.22;;;;;;;;;;6219516;23;20012;-73
2022/11/03 07:40:27;;;;;;;15.02;3.50;;;;;;;;;;6218921;23;20012;-73
2022/11/03 07:43:00;;;;;;;17.77;3.55;;;;;;;;;;6219212;23;20458;-73
2022/11/03 07:45:38;;;;;;;15.98;3.92;;;;;;;;;;6218931;23;20091;-73
2022/11/03 07:48:32;;;;;;;15.85;4.30;;;;;;;;;;6219135;23;20012;-73
2022/11/03 07:51:17;;;;;;;19.08;4.10;;;;;;;;;;6175443;23;20438;-73
2022/11/03 07:53:47;;;;;;;22.95;4.13;;;;;;;;;;6219262;23;20012;-73
2022/11/03 07:56:15;;;;;;;13.70;3.40;;;;;;;;;;6218684;23;20012;-73
2022/11/03 07:58:42;;;;;;;15.18;3.95;;;;;;;;;;6202351;23;20021;-73
2022/11/03 08:01:39;;;;;;;16.17;3.95;;;10.90;99.90;;;;;;6183901;23;20017;-73
2022/11/03 08:04:12;;;;;;;12.43;3.53;;;;;;;;;;6183908;23;20017;-73
2022/11/03 08:06:38;;;;;;;18.13;3.47;;;;;;;;;;6183696;23;20439;-73
2022/11/03 08:09:07;;;;;;;13.80;2.97;;;;;;;;;;6135697;23;20025;-73
2022/11/03 08:11:33;;;;;;;20.25;3.50;;;;;;;;;;6183871;23;20509;-72
2022/11/03 08:13:59;;;;;;;13.98;3.35;;;;;;;;;;6183915;23;20035;-73
2022/11/03 08:16:25;;;;;;;17.33;3.55;;;;;;;;;;6183141;23;20074;-72
2022/11/03 08:18:51;;;;;;;13.32;3.72;;;;;;;;;;6159233;23;20103;-72
2022/11/03 08:21:17;;;;;;;13.20;3.63;;;;;;;;;;6183740;23;20013;-72
2022/11/03 08:23:44;;;;;;;11.18;3.17;;;;;;;;;;6184152;23;20045;-71
2022/11/03 08:26:10;;;;;;;13.70;3.25;;;;;;;;;;6184089;23;20063;-71
2022/11/03 08:28:36;;;;;;;17.67;3.80;;;;;;;;;;6184025;23;20013;-71
2022/11/03 08:31:04;;;;;;;16.92;3.30;;;;;;;;;;6184180;23;20017;-72
2022/11/03 08:33:34;;;;;;;20.15;4.10;;;;;;;;;;6184060;23;20055;-72
2022/11/03 08:36:00;;;;;;;14.73;3.38;;;;;;;;;;6184278;23;20025;-72
2022/11/03 08:38:26;;;;;;;11.05;2.90;;;;;;;;;;6183791;23;20021;-72
2022/11/03 08:40:53;;;;;;;11.63;3.88;;;;;;;;;;6184608;23;20095;-72
2022/11/03 08:43:19;;;;;;;14.35;3.20;;;;;;;;;;6183990;23;20404;-72
2022/11/03 08:45:45;;;;;;;22.90;3.72;;;;;;;;;;6184018;23;20029;-72
2022/11/03 08:48:12;;;;;;;20.58;3.40;;;;;;;;;;6183951;23;20443;-72
2022/11/03 08:50:39;;;;;;;11.52;3.50;;;;;;;;;;6185397;23;20099;-72
2022/11/03 08:53:05;;;;;;;13.32;3.97;;;;;;;;;;6183869;23;20020;-72
2022/11/03 08:55:31;;;;;;;16.23;3.92;;;;;;;;;;6182628;23;20013;-72
2022/11/03 08:57:57;;;;;;;12.88;3.80;;;;;;;;;;6188453;23;20527;-72
2022/11/03 09:00:23;;;;;;;12.05;3.58;;;;;;;;;;6219111;23;20078;-72
2022/11/03 09:02:50;;;;;;;18.42;4.32;;;;;;;;;;6219185;23;20016;-72
2022/11/03 09:05:16;;;;;;;16.33;3.60;;;;;;;;;;6218892;23;20383;-72
2022/11/03 09:07:42;;;;;;;12.57;3.35;;;;;;;;;;6218815;22;20046;-72
2022/11/03 09:10:09;;;;;;;14.45;3.25;;;;;;;;;;6219004;23;20019;-72
2022/11/03 09:12:36;;;;;;;22.88;4.22;;;;;;;;;;6219139;23;20020;-72
2022/11/03 09:15:02;;;;;;;14.93;3.53;;;;;;;;;;6219080;23;20016;-72
2022/11/03 09:17:28;;;;;;;17.23;3.83;;;;;;;;;;6219057;23;20016;-72
2022/11/03 09:19:55;;;;;;;18.27;3.35;;;;;;;;;;6218861;23;20016;-72
2022/11/03 09:22:21;;;;;;;15.10;4.10;;;;;;;;;;6194187;23;20074;-72
2022/11/03 09:24:47;;;;;;;15.02;3.65;;;;;;;;;;6218896;23;20024;-72
2022/11/03 09:27:13;;;;;;;9.32;3.20;;;;;;;;;;6218976;23;20015;-72
2022/11/03 09:29:39;;;;;;;15.38;3.80;;;;;;;;;;6194569;23;20066;-72
2022/11/03 09:32:07;;;;;;;13.27;3.33;;;;;;;;;;6219171;23;20066;-72
2022/11/03 09:34:33;;;;;;;15.75;4.47;;;;;;;;;;6219084;23;20323;-72
2022/11/03 09:36:59;;;;;;;14.73;3.20;;;;;;;;;;6219098;23;20069;-72
2022/11/03 09:39:25;;;;;;;17.67;3.50;;;;;;;;;;6218985;23;20012;-72
2022/11/03 09:41:52;;;;;;;17.02;3.78;;;;;;;;;;6218937;23;20016;-72
2022/11/03 09:44:19;;;;;;;12.48;3.60;;;;;;;;;;6219515;23;20023;-72
2022/11/03 09:46:45;;;;;;;15.15;4.30;;;;;;;;;;6218880;23;20018;-72
2022/11/03 09:49:13;;;;;;;26.48;4.07;;;;;;;;;;6218872;23;20027;-72
2022/11/03 09:51:39;;;;;;;14.38;3.53;;;;;;;;;;6218812;23;20013;-72
2022/11/03 09:54:05;;;;;;;17.10;4.75;;;;;;;;;;6245726;23;20016;-72
2022/11/03 09:56:33;;;;;;;17.00;3.33;;;;;;;;;;6218919;23;20016;-72
2022/11/03 09:59:00;;;;;;;13.10;3.38;;;;;;;;;;6218640;23;20016;-72
2022/11/03 10:01:26;;;;;;;15.13;4.03;;;;;;;;;;6218965;23;20095;-72
2022/11/03 10:03:54;;;;;;;18.58;4.10;;;;;;;;;;6245748;23;20019;-72
2022/11/03 10:06:20;;;;;;;18.63;4.07;;;;;;;;;;6218224;23;20422;-72
2022/11/03 10:08:46;;;;;;;11.73;3.47;;;;;;;;;;6218038;23;20019;-72
2022/11/03 10:11:13;;;;;;;19.30;3.95;;;;;;;;;;6218221;23;20138;-72
2022/11/03 10:13:41;;;;;;;13.57;3.65;;;;;;;;;;6217430;23;20070;-72
2022/11/03 10:16:09;;;;;;;13.70;3.38;;;;;;;;;;6217486;23;20024;-72
2022/11/03 10:18:36;;;;;;;15.48;3.40;;;;;;;;;;6218232;23;20016;-73
2022/11/03 10:21:05;;;;;;;12.50;2.90;;;;;;;;;;6220392;23;20473;-76
2022/11/03 10:23:31;;;;;;;13.48;3.10;;;;;;;;;;6219298;23;20091;-72
2022/11/03 10:26:17;;;;;;;15.43;3.67;;;;;;;;;;6219919;23;20090;-72
2022/11/03 10:29:18;;;;;;;17.52;3.78;;;;;;;;;;6220056;23;20016;-72
2022/11/03 10:31:48;;;;;;;16.58;3.22;;;;;;;;;;6156994;23;20414;-72
2022/11/03 10:34:25;;;;;;;12.38;3.50;;;;;;;;;;6219630;23;21065;-73
2022/11/03 10:37:09;;;;;;;15.10;3.28;;;;;;;;;;6219808;23;20118;-73
2022/11/03 10:39:36;;;;;;;14.30;3.33;;;;;;;;;;6219629;23;20083;-73
2022/11/03 10:42:02;;;;;;;15.60;3.67;;;;;;;;;;6219720;23;20008;-74
2022/11/03 10:44:29;;;;;;;16.45;3.03;;;;;;;;;;6219545;23;20014;-73
2022/11/03 10:46:59;;;;;;;17.20;3.70;;;;;;;;;;6219636;23;20088;-73
2022/11/03 10:49:27;;;;;;;16.17;3.42;;;;;;;;;;6219584;23;20092;-73
2022/11/03 10:51:54;;;;;;;14.18;3.38;;;;;;;;;;6219713;23;20020;-73
2022/11/03 10:54:21;;;;;;;13.60;3.45;;;;;;;;;;6220028;23;20016;-73
2022/11/03 10:56:49;;;;;;;24.75;4.07;;;;;;;;;;6219621;23;20020;-73
2022/11/03 10:59:30;;;;;;;14.88;3.25;;;;;;;;;;6218206;23;20028;-73
2022/11/03 11:01:57;;;;;;;19.13;3.50;;;;;;;;;;6219373;23;20016;-73
2022/11/03 11:04:23;;;;;;;17.58;3.08;;;;;;;;;;6219116;23;20040;-74
2022/11/03 11:06:49;;;;;;;15.98;5.13;;;;;;;;;;6219709;23;20016;-73
2022/11/03 11:09:18;;;;;;;15.02;3.50;;;;;;;;;;6194191;23;20023;-73
2022/11/03 11:12:03;;;;;;;13.15;2.97;;;;;;;;;;6219199;23;20024;-73
2022/11/03 11:14:29;;;;;;;12.68;3.03;;;;;;;;;;6219444;23;20091;-73
2022/11/03 11:16:56;;;;;;;19.75;3.40;;;;;;;;;;6219310;23;20035;-73
2022/11/03 11:19:23;;;;;;;9.70;2.83;;;;;;;;;;6218831;23;20016;-73
2022/11/03 11:21:56;;;;;;;12.68;3.17;;;;;;;;;;6219286;23;20422;-73
2022/11/03 11:24:44;;;;;;;12.10;4.00;;;13.40;99.90;;;;;;6219321;23;20016;-73
2022/11/03 11:27:30;;;;;;;14.25;3.20;;;;;;;;;;6219078;23;20012;-73
2022/11/03 11:29:56;;;;;;;15.13;3.00;;;;;;;;;;6218987;23;20019;-73
2022/11/03 11:32:41;;;;;;;17.00;3.33;;;;;;;;;;6245864;23;20374;-73
2022/11/03 11:35:11;;;;;;;14.30;3.20;;;;;;;;;;6245904;23;20397;-73
2022/11/03 11:37:37;;;;;;;19.02;3.05;;;;;;;;;;6219261;23;20016;-73
2022/11/03 11:40:11;;;;;;;12.98;3.50;;;;;;;;;;6219058;23;20016;-73
2022/11/03 11:42:57;;;;;;;15.60;3.50;;;;;;;;;;6219206;23;20016;-73
2022/11/03 11:45:42;;;;;;;13.52;3.20;;;;;;;;;;6218804;23;20446;-73
2022/11/03 11:48:17;;;;;;;11.43;3.05;;;;;;;;;;6219093;23;20011;-73
2022/11/03 11:50:43;;;;;;;11.95;3.22;;;;;;;;;;6219023;23;20087;-73
2022/11/03 11:53:11;;;;;;;15.68;3.45;;;;;;;;;;6219078;23;20019;-73
2022/11/03 11:55:42;;;;;;;14.23;3.17;;;;;;;;;;6219000;23;20020;-73
2022/11/03 11:58:20;;;;;;;22.65;3.60;;;;;;;;;;6218532;23;20016;-73
2022/11/03 12:00:58;;;;;;;15.30;3.22;;;;;;;;;;6219399;23;20019;-72
2022/11/03 12:03:29;;;;;;;16.95;2.90;;;;;;;;;;6245964;23;20546;-73
2022/11/03 12:05:55;;;;;;;15.90;2.85;;;;;;;;;;6218860;23;20059;-72
2022/11/03 12:08:27;;;;;;;16.15;3.30;;;;;;;;;;6218932;23;20020;-72
2022/11/03 12:10:54;;;;;;;13.82;3.17;;;;;;;;;;6218973;23;20020;-73
2022/11/03 12:13:35;;;;;;;12.88;3.85;;;;;;;;;;6218729;23;20438;-72
2022/11/03 12:16:01;;;;;;;17.77;4.55;;;;;;;;;;6218994;23;20024;-72
2022/11/03 12:18:38;;;;;;;11.82;3.30;;;;;;;;;;6218937;23;20016;-72
2022/11/03 12:21:24;;;;;;;12.23;2.88;;;;;;;;;;6219199;23;20404;-73
2022/11/03 12:23:50;;;;;;;11.25;3.03;;;;;;;;;;6216671;23;20071;-73
2022/11/03 12:26:37;;;;;;;9.13;2.63;;;;;;;;;;6219072;23;20050;-73
2022/11/03 12:29:04;;;;;;;13.75;3.17;;;;;;;;;;6198483;23;20016;-73
2022/11/03 12:31:30;;;;;;;10.25;3.30;;;;;;;;;;6218349;23;20016;-73
2022/11/03 12:33:56;;;;;;;12.13;4.45;;;;;;;;;;6218683;23;20034;-73
2022/11/03 12:36:22;;;;;;;16.50;3.33;;;;;;;;;;6218977;23;20066;-73
2022/11/03 12:38:49;;;;;;;15.65;2.83;;;;;;;;;;6218926;23;20074;-73
2022/11/03 12:41:20;;;;;;;10.95;3.10;;;;;;;;;;6218837;23;20095;-72
2022/11/03 12:43:47;;;;;;;17.05;3.45;;;;;;;;;;6218745;23;20027;-72
2022/11/03 12:46:14;;;;;;;11.52;2.80;;;;;;;;;;6218794;23;20020;-77
2022/11/03 12:48:42;;;;;;;15.57;2.85;;;;;;;;;;6218954;23;20016;-73
2022/11/03 12:51:12;;;;;;;11.52;3.33;;;;;;;;;;6218658;23;20459;-73
2022/11/03 12:53:39;;;;;;;7.97;2.88;;;;;;;;;;6218629;23;20465;-73
2022/11/03 12:56:06;;;;;;;15.77;2.95;;;;;;;;;;6245391;23;20016;-73
2022/11/03 12:58:32;;;;;;;11.02;3.00;;;;;;;;;;6218367;23;20070;-73
2022/11/03 13:01:01;;;;;;;12.90;3.20;;;;;;;;;;6245719;23;20051;-73
2022/11/03 13:03:28;;;;;;;12.45;3.03;;;;;;;;;;6218779;23;20016;-73
2022/11/03 13:05:54;;;;;;;11.75;2.95;;;;;;;;;;6218063;23;20044;-73
2022/11/03 13:08:20;;;;;;;10.00;2.75;;;;;;;;;;6216593;23;20438;-73
2022/11/03 13:10:47;;;;;;;19.13;3.25;;;;;;;;;;6218454;23;20020;-73
2022/11/03 13:13:13;;;;;;;12.15;2.63;;;;;;;;;;6218545;23;20027;-73
2022/11/03 13:15:40;;;;;;;19.10;2.95;;;;;;;;;;6218699;23;20469;-73
2022/11/03 13:18:06;;;;;;;16.73;3.30;;;;;;;;;;6216930;23;20023;-72
2022/11/03 13:20:32;;;;;;;13.20;3.40;;;;;;;;;;6218514;23;20015;-73
2022/11/03 13:22:58;;;;;;;13.50;3.28;;;;;;;;;;6218564;23;20024;-73
2022/11/03 13:25:25;;;;;;;11.10;3.10;;;;;;;;;;6218431;23;20017;-73
2022/11/03 13:27:53;;;;;;;16.05;3.40;;;;;;;;;;6218507;23;20081;-73
2022/11/03 13:30:26;;;;;;;14.35;3.30;;;;;;;;;;6218477;23;20016;-73
2022/11/03 13:32:52;;;;;;;15.10;2.80;;;;;;;;;;6218595;23;20067;-73
2022/11/03 13:35:19;;;;;;;10.98;2.40;;;;;;;;;;6218302;23;20066;-73
2022/11/03 13:37:45;;;;;;;20.92;3.22;;;;;;;;;;6218428;23;20043;-73
2022/11/03 13:40:12;;;;;;;16.50;3.17;;;;;;;;;;6218253;23;20016;-73
2022/11/03 13:42:38;;;;;;;15.07;4.35;;;;;;;;;;6219961;23;20335;-73
2022/11/03 13:45:04;;;;;;;10.98;3.08;;;;;;;;;;6247336;23;20320;-73
2022/11/03 13:47:30;;;;;;;11.32;3.33;;;;;;;;;;6247191;23;20009;-73
2022/11/03 13:49:57;;;;;;;10.02;2.75;;;;;;;;;;6220334;23;20020;-74
2022/11/03 13:52:25;;;;;;;11.95;3.03;;;;;;;;;;6220188;23;20027;-74
2022/11/03 13:54:51;;;;;;;9.70;2.58;;;;;;;;;;6220099;23;20020;-73
2022/11/03 13:57:18;;;;;;;11.73;3.75;;;;;;;;;;6219988;23;20023;-73
2022/11/03 13:59:44;;;;;;;18.63;2.97;;;;;;;;;;6219700;23;20012;-73
2022/11/03 14:02:11;;;;;;;12.30;2.90;;;;;;;;;;6219928;23;20016;-73
2022/11/03 14:04:37;;;;;;;12.25;3.20;;;;;;;;;;6220020;23;20095;-73
2022/11/03 14:07:04;;;;;;;12.43;3.28;;;;;;;;;;6219364;23;20012;-73
2022/11/03 14:09:30;;;;;;;10.63;2.72;;;;;;;;;;6246388;22;20435;-73
2022/11/03 14:14:41;;;;;;;9.48;2.35;;;;;;;;;;6219657;23;20051;-73
2022/11/03 14:17:07;;;;;;;9.38;3.20;;;;;;;;;;6219635;23;20027;-73
2022/11/03 14:19:34;;;;;;;11.95;3.58;;;;;;;;;;6219195;23;20047;-73
2022/11/03 14:22:00;;;;;;;11.38;2.95;;;;;;;;;;6219479;23;20016;-73
2022/11/03 14:24:26;;;;;;;12.05;2.95;;;;;;;;;;6219787;23;20062;-73
2022/11/03 14:26:52;;;;;;;9.35;3.00;;;;;;;;;;6219946;23;20457;-74
2022/11/03 14:29:18;;;;;;;8.25;2.70;;;;;;;;;;6219751;23;20023;-73
2022/11/03 14:31:44;;;;;;;17.02;3.40;;;;;;;;;;6218698;23;20016;-73
2022/11/03 14:34:10;;;;;;;13.00;2.90;;;;;;;;;;6220163;23;20016;-73
2022/11/03 14:36:36;;;;;;;15.57;2.92;;;;;;;;;;6220181;23;20086;-73
2022/11/03 14:39:03;;;;;;;10.50;3.03;;;;;;;;;;6220286;23;20443;-73
2022/11/03 14:44:13;;;;;;;8.82;3.08;;;;;;;;;;6220215;23;20016;-73
2022/11/03 14:46:39;;;;;;;12.00;3.33;;;;;;;;;;6220610;23;20038;-73
2022/11/03 14:49:05;;;;;;;10.93;3.05;;;;;;;;;;6195513;23;20350;-73
2022/11/03 14:51:31;;;;;;;10.15;3.33;;;;;;;;;;6220457;23;20066;-73
2022/11/03 14:53:58;;;;;;;13.65;3.10;;;;;;;;;;6219860;23;20403;-73
2022/11/03 14:56:24;;;;;;;16.38;3.72;;;;;;;;;;6220362;23;20442;-73
2022/11/03 14:58:50;;;;;;;12.57;2.65;;;;;;;;;;6207985;23;20071;-73
2022/11/03 15:01:16;;;;;;;27.02;3.92;;;;;;;;;;6185213;23;20009;-73
2022/11/03 15:03:43;;;;;;;13.48;3.25;;;;;;;;;;6185269;23;20340;-73
2022/11/03 15:06:09;;;;;;;8.50;2.70;;;;;;;;;;6160158;23;20009;-73